Řízení letového provozu České republiky
Letiste: LKKV Aktualizace: 27.05.2018 00:01:07  UTC
 METAR LKKV 27.05. 00:00 ...
METAR LKKV 270000Z 30003KT CAVOK 15/11 Q1022 RMK REG QNH 1019=
 TAF LKKV 26.05. 23:00 ...
TAF LKKV 262300Z 2700/2806 08004KT CAVOK      TEMPO 2707/2717 14011KT 9999 SCT050TCU=